Terminal Aerodrome Forecast
Issued by NWS Charleston, WV

Current Version | Previous Version | Graphics & Text | Print | Product List | Glossary On
Versions: 1 2 3 4 5 6 7 8 9 10 11 12 13 14 15 16 17 18 19 20 21 22 23 24 25 26 27 28 29
493
FTUS41 KRLX 230555
TAFBKW
TAF
KBKW 230555Z 2306/2406 23005KT P6SM VCSH SCT050 BKN100
     FM230800 24005KT 6SM -SHRA OVC050
     FM231500 25008KT P6SM SCT025 BKN050
     FM231800 26008KT P6SM VCTS BKN050CB=

USA.gov is the U.S. government's official web portal to all federal, state and local government web resources and services.